Aeroporto :
LOGIN :

Iscrizione | Disclaimer

   EN    FR    IT 

 










Sommario :    VFR   VFR Marginale   IFR   IFR Intensivo   IFR Molto Intensivo
Visibilità : 
Base nubi : 
>= 8 km
>= 3000ft
5 / 8 km
1000 / 3000 ft
1500m / 5 km
500 / 1000 ft
800 / 1500m
200 / 500 ft
< 800m
< 200 ft
Simboli :   Temporali  Nebbia  Neve Forte  Precipitazioni Forti  Vento > 20 kt
SIGMETs :   Varie  Temporali  Ghiacco  Turbolenza  Onda orograficha  Ceneri Vulcaniche






- Altitudine del aeroporto : 82 ft
- Codice IATA : QIE


LFMI - Istres

ULTIMO METAR :
  • 240600Z AUTO 31010KT CAVOK 08/02 Q1024 TEMPO 35015G25KT

METARs OBSOLETI :
  • 240530Z AUTO 31005KT CAVOK 07/02 Q1024 TEMPO 35015G25KT
  • 240500Z AUTO 32006KT CAVOK 08/02 Q1024 TEMPO 35015G25KT
  • 240430Z AUTO 32011KT CAVOK 09/02 Q1024 TEMPO 35015G25KT
  • 240400Z AUTO 32007KT CAVOK 08/02 Q1024 TEMPO 35015G25KT
  • 240330Z AUTO 29009KT CAVOK 08/03 Q1024 TEMPO 35015G25KT

TAF TAF LFMI
Valido dal 24 a 03 ore il 25 a 03 ore UTC


240200Z 2403/2503 30010KT CAVOK
TEMPO 2403/2410 35015G25KT
BECMG 2418/2420 VRB05KT



MetMap, La meteo Aeronautica in un colpo d'occhio ! - Copyright ORBIFLY Dicembre 2007 - Disclaimer

ORBIFLY MET'MAP TEAM :

Programmazione e sviluppo : Alexandra Zaïnal
Concezione : Baudouin d'Aumeries
Aiuto per la programmazione : Marc-Olivier Méhu
Supporto tecnico e logistico : Manuel Goepfert
Aiuto per la traduzione : Arnaldo La Scala

Contatto : metmap@orbifly.com




FONTI E CREDITI :

   NOAA